Time;durP1;ratioP1;P1;durP2;ratioP2;P2;SDS_P1;SDS_P2;PMS_P1;PMS_P2;Temp;Humidity;BMP_temperature;BMP_pressure;BME280_temperature;BME280_humidity;BME280_pressure;Samples;Min_cycle;Max_cycle;Signal;HPM_P1;HPM_P2
2021/04/25 00:02:09;;;;;;;10.53;5.47;;;;;;;5.10;41.98;100531.29;115336;1200;102982;-77
2021/04/25 00:04:37;;;;;;;13.33;5.40;;;;;;;5.08;41.57;100531.30;115291;1197;103142;-77
2021/04/25 00:07:06;;;;;;;12.67;5.70;;;;;;;5.07;41.82;100531.31;115300;1200;103286;-77
2021/04/25 00:09:33;;;;;;;10.17;5.10;;;;;;;5.07;41.91;100528.72;115356;1199;103120;-77
2021/04/25 00:12:01;;;;;;;9.07;5.57;;;;;;;5.07;41.88;100528.72;115555;1199;103076;-77
2021/04/25 00:14:29;;;;;;;10.67;5.47;;;;;;;5.06;41.86;100525.28;115309;1199;102796;-78
2021/04/25 00:16:56;;;;;;;14.03;5.83;;;;;;;5.08;41.85;100522.69;115512;1199;103190;-78
2021/04/25 00:19:24;;;;;;;8.97;5.43;;;;;;;5.07;42.29;100513.22;115275;1198;102873;-77
2021/04/25 00:21:51;;;;;;;8.33;5.10;;;;;;;5.06;42.05;100509.77;115288;1199;103097;-77
2021/04/25 00:24:18;;;;;;;9.45;5.40;;;;;;;5.07;42.14;100515.80;115304;1199;103159;-77
2021/04/25 00:26:45;;;;;;;10.63;5.17;;;;;;;5.07;42.25;100508.05;115296;1198;103040;-77
2021/04/25 00:29:12;;;;;;;9.93;5.07;;;;;;;5.07;42.33;100515.80;115287;1198;103027;-78
2021/04/25 00:31:39;;;;;;;9.75;5.25;;;;;;;5.07;42.30;100505.45;115462;1199;103207;-78
2021/04/25 00:34:07;;;;;;;9.67;5.17;;;;;;;5.05;42.32;100507.20;115525;1199;103086;-78
2021/04/25 00:36:34;;;;;;;12.00;5.50;;;;;;;5.02;42.40;100510.63;115265;1200;103033;-78
2021/04/25 00:39:03;;;;;;;9.90;5.27;;;;;;;5.00;42.46;100501.17;115511;1199;103478;-78
2021/04/25 00:41:31;;;;;;;11.50;5.47;;;;;;;4.99;42.41;100500.31;115579;1199;103034;-77
2021/04/25 00:43:58;;;;;;;11.20;5.20;;;;;;;4.99;42.64;100496.87;115272;1199;102989;-77
2021/04/25 00:46:25;;;;;;;8.83;5.30;;;;;;;4.98;42.55;100502.91;115465;1199;103081;-77
2021/04/25 00:48:52;;;;;;;10.63;5.60;;;;;;;4.96;42.39;100502.92;115470;1199;102995;-77
2021/04/25 00:51:24;;;;;;;9.33;5.33;;;;;;;4.97;42.23;100506.36;115282;1199;103086;-76
2021/04/25 00:53:52;;;;;;;11.07;5.33;;;;;;;4.96;42.46;100496.89;115293;1198;103079;-76
2021/04/25 00:56:22;;;;;;;11.67;5.80;;;;;;;4.96;42.67;100496.89;115258;1198;103027;-78
2021/04/25 00:58:50;;;;;;;11.07;5.77;;;;;;;4.96;43.03;100496.89;115531;1199;103060;-78
2021/04/25 01:01:17;;;;;;;9.63;5.43;;;;;;;4.94;43.05;100499.48;115542;1199;103088;-77
2021/04/25 01:03:45;;;;;;;9.33;5.03;;;;;;;4.95;42.98;100496.03;115318;1198;103034;-78
2021/04/25 01:06:13;;;;;;;9.45;5.30;;;;;;;4.92;42.70;100488.30;115332;1199;103204;-77
2021/04/25 01:08:40;;;;;;;9.90;5.90;;;;;;;4.90;42.80;100487.45;115280;1199;103073;-77
2021/04/25 01:11:07;;;;;;;10.75;5.10;;;;;;;4.88;42.69;100489.19;115265;1199;103072;-78
2021/04/25 01:13:34;;;;;;;9.83;5.30;;;;;;;4.88;42.44;100490.92;115261;1199;103082;-78
2021/04/25 01:16:02;;;;;;;10.80;5.87;;;;;;;4.87;42.94;100494.37;115290;1199;103000;-77
2021/04/25 01:18:29;;;;;;;8.87;5.23;;;;;;;4.84;42.79;100490.91;115252;1199;103067;-77
2021/04/25 01:21:04;;;;;;;11.30;5.57;;;;;;;4.83;43.02;100486.60;115295;1200;102876;-77
2021/04/25 01:23:32;;;;;;;10.03;5.30;;;;;;;4.81;42.67;100490.06;115338;1199;103487;-77
2021/04/25 01:25:59;;;;;;;10.27;5.30;;;;;;;4.82;42.70;100479.72;115315;1199;103030;-77
2021/04/25 01:28:28;;;;;;;9.43;5.27;;;;;;;4.81;42.71;100480.59;115302;1199;103108;-78
2021/04/25 01:30:55;;;;;;;9.13;5.47;;;;;;;4.81;42.88;100475.42;115353;1199;103101;-78
2021/04/25 01:33:24;;;;;;;10.07;5.33;;;;;;;4.81;43.02;100475.42;115273;1199;103143;-77
2021/04/25 01:35:52;;;;;;;12.00;5.70;;;;;;;4.82;43.08;100461.63;115341;1199;102838;-76
2021/04/25 01:38:20;;;;;;;9.33;5.30;;;;;;;4.83;43.28;100457.32;115284;1201;103117;-77
2021/04/25 01:40:47;;;;;;;10.90;5.77;;;;;;;4.85;43.00;100458.20;115521;1199;103136;-77
2021/04/25 01:43:14;;;;;;;9.70;5.70;;;;;;;4.86;43.01;100459.91;115309;1199;103162;-77
2021/04/25 01:45:42;;;;;;;11.93;5.57;;;;;;;4.83;42.84;100465.93;115394;1199;103066;-77
2021/04/25 01:48:09;;;;;;;9.80;5.60;;;;;;;4.80;42.98;100463.37;115315;1199;103057;-77
2021/04/25 01:50:37;;;;;;;10.10;5.60;;;;;;;4.79;43.00;100456.48;115337;1199;103107;-77
2021/04/25 01:53:06;;;;;;;9.20;5.80;;;;;;;4.76;43.16;100456.51;115322;1200;103005;-78
2021/04/25 01:55:35;;;;;;;9.30;5.23;;;;;;;4.76;43.41;100456.51;115540;1199;103021;-78
2021/04/25 01:58:04;;;;;;;10.77;6.03;;;;;;;4.78;43.24;100465.11;115260;1199;103043;-77
2021/04/25 02:00:39;;;;;;;10.07;5.43;;;;;;;4.79;43.45;100455.63;115275;1198;103024;-76
2021/04/25 02:03:06;;;;;;;11.83;6.03;;;;;;;4.80;43.38;100452.17;115331;1199;102906;-77
2021/04/25 02:05:35;;;;;;;11.57;6.10;;;;;;;4.78;43.74;100448.74;115325;1199;103063;-78
2021/04/25 02:08:05;;;;;;;11.63;6.00;;;;;;;4.81;43.44;100453.89;115373;1199;103088;-77
2021/04/25 02:10:32;;;;;;;10.20;5.50;;;;;;;4.80;43.65;100452.17;115300;1199;102999;-77
2021/04/25 02:13:00;;;;;;;8.75;5.40;;;;;;;4.80;43.72;100457.34;115380;1198;103156;-77
2021/04/25 02:15:27;;;;;;;12.43;6.53;;;;;;;4.81;43.67;100457.33;115281;1199;102986;-77
2021/04/25 02:17:54;;;;;;;9.97;6.03;;;;;;;4.78;43.71;100457.36;115575;1198;102970;-77
2021/04/25 02:20:23;;;;;;;11.00;5.80;;;;;;;4.76;43.86;100446.17;115321;1200;103044;-77
2021/04/25 02:22:52;;;;;;;14.07;6.40;;;;;;;4.76;44.18;100451.34;115296;1197;103472;-77
2021/04/25 02:25:20;;;;;;;10.03;6.10;;;;;;;4.76;44.10;100456.51;115513;1198;103051;-78
2021/04/25 02:27:48;;;;;;;11.83;6.20;;;;;;;4.74;44.04;100454.80;115336;1199;103064;-77
2021/04/25 02:30:20;;;;;;;11.10;5.80;;;;;;;4.73;43.89;100455.67;115572;1199;103433;-78
2021/04/25 02:32:47;;;;;;;12.67;6.47;;;;;;;4.72;44.09;100453.95;115333;1199;103136;-79
2021/04/25 02:35:15;;;;;;;11.17;6.03;;;;;;;4.70;43.94;100456.55;115291;1200;103024;-77
2021/04/25 02:37:43;;;;;;;12.05;6.50;;;;;;;4.68;44.18;100458.28;115338;1198;103002;-77
2021/04/25 02:40:14;;;;;;;11.15;6.05;;;;;;;4.64;44.04;100455.70;115304;1199;103031;-79
2021/04/25 02:42:42;;;;;;;10.37;6.03;;;;;;;4.62;44.31;100460.02;115339;1198;104284;-77
2021/04/25 02:45:18;;;;;;;10.23;6.13;;;;;;;4.62;44.24;100453.13;115343;1199;103066;-77
2021/04/25 02:47:51;;;;;;;13.10;6.33;;;;;;;4.60;44.33;100448.84;115558;1199;103101;-77
2021/04/25 02:50:21;;;;;;;13.20;6.43;;;;;;;4.60;44.17;100457.44;115283;1200;104225;-77
2021/04/25 02:52:49;;;;;;;11.73;6.83;;;;;;;4.60;44.29;100457.44;115331;1200;103111;-78
2021/04/25 02:55:17;;;;;;;11.60;6.57;;;;;;;4.60;44.41;100456.58;115556;1200;103021;-78
2021/04/25 02:57:44;;;;;;;12.63;6.17;;;;;;;4.58;44.28;100447.98;115548;1199;101969;-77
2021/04/25 03:00:17;;;;;;;12.13;6.10;;;;;;;4.54;44.45;100449.73;115258;1199;103015;-77
2021/04/25 03:02:45;;;;;;;11.77;6.27;;;;;;;4.52;44.58;100452.33;115324;1199;103063;-77
2021/04/25 03:05:13;;;;;;;12.43;6.83;;;;;;;4.51;44.38;100444.59;115291;1199;102996;-77
2021/04/25 03:07:40;;;;;;;11.67;6.13;;;;;;;4.50;44.44;100448.89;115327;1199;103089;-77
2021/04/25 03:10:08;;;;;;;11.57;6.27;;;;;;;4.49;44.29;100451.48;115329;1199;102992;-77
2021/04/25 03:12:36;;;;;;;12.07;5.83;;;;;;;4.49;44.12;100448.91;115387;1199;103268;-78
2021/04/25 03:15:07;;;;;;;11.83;6.37;;;;;;;4.51;43.83;100449.75;115307;1200;103033;-78
2021/04/25 03:17:35;;;;;;;10.40;5.57;;;;;;;4.48;43.89;100444.57;115338;1199;102813;-78
2021/04/25 03:20:08;;;;;;;9.27;5.83;;;;;;;4.46;43.85;100451.47;115583;1199;103025;-77
2021/04/25 03:22:37;;;;;;;12.60;5.97;;;;;;;4.44;43.96;100445.45;115387;1199;103172;-78
2021/04/25 03:25:08;;;;;;;11.05;5.85;;;;;;;4.42;43.92;100445.47;115274;1199;103136;-77
2021/04/25 03:27:36;;;;;;;14.53;6.10;;;;;;;4.42;43.86;100442.03;115317;1200;103085;-77
2021/04/25 03:30:05;;;;;;;12.90;6.17;;;;;;;4.41;43.83;100442.89;115516;1199;103110;-76
2021/04/25 03:32:33;;;;;;;10.47;5.97;;;;;;;4.41;44.30;100448.06;115338;1200;103027;-77
2021/04/25 03:35:01;;;;;;;11.80;6.43;;;;;;;4.41;44.41;100450.64;115323;1199;101926;-77
2021/04/25 03:37:28;;;;;;;12.00;6.47;;;;;;;4.38;44.28;100453.23;115559;1198;103161;-77
2021/04/25 03:39:56;;;;;;;10.23;6.07;;;;;;;4.36;44.73;100445.50;115314;1199;103017;-77
2021/04/25 03:42:23;;;;;;;11.13;6.23;;;;;;;4.35;44.82;100445.51;115300;1199;103120;-77
2021/04/25 03:44:50;;;;;;;12.37;6.50;;;;;;;4.32;44.50;100448.97;115310;1199;103021;-77
2021/04/25 03:47:17;;;;;;;10.38;6.03;;;;;;;4.33;45.40;100449.83;115415;1199;103130;-77
2021/04/25 03:49:45;;;;;;;11.15;5.65;;;;;;;4.29;45.26;100448.09;115479;1198;103098;-78
2021/04/25 03:52:12;;;;;;;11.37;6.37;;;;;;;4.24;45.37;100441.23;115404;1200;103076;-77
2021/04/25 03:54:39;;;;;;;14.20;7.27;;;;;;;4.21;45.59;100441.23;115309;1200;103028;-77
2021/04/25 03:57:07;;;;;;;13.23;7.10;;;;;;;4.19;45.85;100448.13;115338;1199;103124;-78
2021/04/25 03:59:34;;;;;;;12.30;6.47;;;;;;;4.18;45.72;100449.00;115324;1199;103123;-77
2021/04/25 04:02:02;;;;;;;13.33;7.13;;;;;;;4.17;46.13;100447.28;115555;1199;103014;-77
2021/04/25 04:04:29;;;;;;;12.27;6.87;;;;;;;4.16;46.21;100445.57;115520;1199;103014;-77
2021/04/25 04:06:56;;;;;;;12.80;6.73;;;;;;;4.20;46.07;100447.27;115305;1199;103037;-76
2021/04/25 04:09:24;;;;;;;13.07;7.27;;;;;;;4.23;46.54;100452.42;115356;1199;103035;-78
2021/04/25 04:11:51;;;;;;;12.73;7.33;;;;;;;4.31;46.31;100452.41;115257;1197;103182;-77
2021/04/25 04:14:18;;;;;;;14.10;7.87;;;;;;;4.42;46.59;100449.77;115529;1199;103019;-77
2021/04/25 04:16:45;;;;;;;17.00;8.90;;;;;;;4.52;46.99;100454.05;115297;1199;102999;-78
2021/04/25 04:19:12;;;;;;;20.20;9.63;;;;;;;4.64;46.81;100451.39;115317;1199;103016;-77
2021/04/25 04:21:39;;;;;;;16.05;9.15;;;;;;;4.78;46.54;100453.91;115352;1200;103086;-77
2021/04/25 04:24:06;;;;;;;16.03;8.47;;;;;;;4.89;45.71;100461.63;115596;1200;103057;-76
2021/04/25 04:26:33;;;;;;;15.47;8.17;;;;;;;5.02;45.81;100458.07;115310;1200;102989;-77
2021/04/25 04:29:01;;;;;;;14.37;8.37;;;;;;;5.18;45.56;100456.25;115333;1197;103024;-77
2021/04/25 04:31:28;;;;;;;16.20;8.20;;;;;;;5.35;45.22;100462.16;115335;1199;100609;-79
2021/04/25 04:33:56;;;;;;;12.23;7.00;;;;;;;5.58;44.83;100462.00;115249;1198;103223;-77
2021/04/25 04:36:24;;;;;;;11.17;6.77;;;;;;;5.93;44.36;100453.95;115504;1198;103034;-77
2021/04/25 04:38:51;;;;;;;13.07;6.70;;;;;;;7.05;43.53;100461.23;115258;1200;103062;-77
2021/04/25 04:41:18;;;;;;;12.43;6.93;;;;;;;8.10;42.10;100454.30;115298;1198;103233;-77
2021/04/25 04:43:45;;;;;;;10.83;5.87;;;;;;;9.32;40.40;100446.50;115260;1199;103197;-77
2021/04/25 04:46:13;;;;;;;12.75;7.05;;;;;;;10.52;39.94;100455.55;115301;1199;102903;-77
2021/04/25 04:48:40;;;;;;;16.97;8.60;;;;;;;12.19;37.79;100444.10;115279;1198;103575;-77
2021/04/25 04:51:07;;;;;;;12.40;6.73;;;;;;;13.67;36.31;100441.03;115311;1200;103120;-78
2021/04/25 04:53:34;;;;;;;11.13;6.37;;;;;;;15.57;34.73;100434.06;115425;1199;102976;-78
2021/04/25 04:56:02;;;;;;;10.15;6.58;;;;;;;17.57;32.32;100430.36;115298;1199;103018;-78
2021/04/25 04:58:29;;;;;;;10.47;6.10;;;;;;;19.35;30.37;100421.12;115289;1197;103198;-77
2021/04/25 05:00:56;;;;;;;8.97;6.00;;;;;;;20.90;28.46;100418.35;115507;1199;103027;-78
2021/04/25 05:03:23;;;;;;;8.10;5.47;;;;;;;22.33;27.05;100413.83;115270;1199;103046;-78
2021/04/25 05:05:50;;;;;;;7.20;5.00;;;;;;;23.59;25.67;100411.55;115237;1200;103139;-78
2021/04/25 05:08:17;;;;;;;7.87;5.37;;;;;;;25.04;24.24;100406.95;115311;1199;103081;-79
2021/04/25 05:10:45;;;;;;;7.85;4.25;;;;;;;26.22;22.61;100399.58;115266;1199;103101;-78
2021/04/25 05:13:12;;;;;;;5.03;3.53;;;;;;;27.10;21.10;100401.67;115251;1199;103220;-78
2021/04/25 05:15:41;;;;;;;4.40;2.90;;;;;;;27.94;19.60;100393.20;115630;1199;102948;-79
2021/04/25 05:18:08;;;;;;;6.07;3.20;;;;;;;28.70;19.14;100397.80;115487;1199;103158;-78
2021/04/25 05:20:36;;;;;;;4.63;3.20;;;;;;;29.43;18.45;100392.59;115507;1199;102963;-78
2021/04/25 05:23:03;;;;;;;3.70;2.57;;;;;;;30.03;17.33;100392.26;115221;1199;103001;-78
2021/04/25 05:25:30;;;;;;;3.20;2.30;;;;;;;30.52;16.67;100397.52;115256;1200;103024;-78
2021/04/25 05:27:57;;;;;;;6.25;2.90;;;;;;;31.04;16.01;100383.45;115269;1199;103080;-78
2021/04/25 05:30:25;;;;;;;4.00;2.80;;;;;;;31.35;15.52;100380.73;115261;1198;103236;-78
2021/04/25 05:32:52;;;;;;;3.20;2.30;;;;;;;31.68;14.65;100378.60;115556;1199;103159;-78
2021/04/25 05:35:20;;;;;;;3.33;2.20;;;;;;;31.99;14.51;100375.80;115220;1198;107078;-78
2021/04/25 05:37:47;;;;;;;1.93;1.30;;;;;;;32.42;13.93;100384.10;115493;1200;103088;-78
2021/04/25 05:40:15;;;;;;;2.20;1.50;;;;;;;32.85;13.30;100376.96;115543;1199;103024;-78
2021/04/25 05:42:43;;;;;;;1.40;1.10;;;;;;;33.24;12.95;100375.73;115363;1199;103031;-78
2021/04/25 05:45:21;;;;;;;1.25;1.00;;;;;;;33.13;12.12;100378.94;115324;1199;103021;-78
2021/04/25 05:47:49;;;;;;;1.47;1.10;;;;;;;33.45;11.84;100383.85;115291;1199;102983;-78
2021/04/25 05:50:18;;;;;;;1.23;1.10;;;;;;;33.53;11.67;100380.16;115436;1199;103011;-78
2021/04/25 05:52:45;;;;;;;1.10;0.80;;;;;;;33.67;11.48;100376.54;115273;1199;103030;-78
2021/04/25 05:55:14;;;;;;;2.23;1.87;;;;;;;34.04;11.54;100375.37;115521;1199;103146;-78
2021/04/25 05:57:42;;;;;;;4.43;3.23;;;;;;;34.47;11.24;100378.77;115404;1199;103022;-78
2021/04/25 06:00:14;;;;;;;2.00;1.80;;;;;;;35.16;11.31;100374.19;115492;1200;103018;-78
2021/04/25 06:02:41;;;;;;;1.60;1.20;;;;;;;35.32;10.56;100371.91;115528;1200;103117;-79
2021/04/25 06:05:10;;;;;;;1.70;1.00;;;;;;;34.65;9.11;100374.64;115280;1200;103120;-78
2021/04/25 06:07:38;;;;;;;2.33;1.30;;;;;;;33.94;9.58;100374.91;115319;1200;103040;-78
2021/04/25 06:10:06;;;;;;;2.30;1.30;;;;;;;33.96;10.26;100374.70;115368;1197;102977;-78
2021/04/25 06:12:33;;;;;;;1.60;1.10;;;;;;;34.36;10.13;100378.50;115350;1199;103017;-79
2021/04/25 06:15:04;;;;;;;1.63;1.13;;;;;;;34.56;9.48;100382.13;115538;1199;103121;-78
2021/04/25 06:17:33;;;;;;;1.80;1.20;;;;;;;34.57;9.79;100378.38;115265;1200;103495;-79
2021/04/25 06:20:01;;;;;;;1.57;1.30;;;;;;;35.02;9.47;100376.06;115240;1199;102974;-78
2021/04/25 06:22:28;;;;;;;1.77;1.30;;;;;;;35.58;9.24;100371.13;115238;1199;104742;-78
2021/04/25 06:24:55;;;;;;;1.40;1.27;;;;;;;36.22;9.35;100367.69;115491;1199;103018;-78
2021/04/25 06:27:27;;;;;;;1.50;1.20;;;;;;;36.68;9.57;100361.28;115312;1199;103446;-78
2021/04/25 06:29:54;;;;;;;1.80;1.20;;;;;;;36.55;7.77;100362.17;115228;1199;103127;-78
2021/04/25 06:32:22;;;;;;;1.70;1.00;;;;;;;35.83;8.74;100365.05;115244;1200;103163;-79
2021/04/25 06:34:49;;;;;;;1.10;1.00;;;;;;;35.70;8.77;100365.89;115287;1200;103139;-78
2021/04/25 06:37:16;;;;;;;1.07;0.90;;;;;;;35.97;8.66;100359.42;115550;1199;103111;-78
2021/04/25 06:39:43;;;;;;;1.03;0.80;;;;;;;36.24;8.50;100360.16;115427;1200;101905;-78
2021/04/25 06:42:10;;;;;;;1.50;0.90;;;;;;;36.23;8.45;100361.22;115209;1198;103059;-78
2021/04/25 06:44:37;;;;;;;0.93;0.80;;;;;;;36.28;8.03;100356.00;115366;1200;103065;-79
2021/04/25 06:47:04;;;;;;;0.73;0.70;;;;;;;36.29;7.98;100368.52;115272;1198;103095;-79
2021/04/25 06:49:34;;;;;;;2.30;0.80;;;;;;;36.49;7.91;100368.48;115362;1199;104795;-79
2021/04/25 06:52:01;;;;;;;1.70;0.60;;;;;;;36.38;7.80;100363.70;115285;1200;103057;-79
2021/04/25 06:54:28;;;;;;;0.85;0.70;;;;;;;36.47;8.04;100373.30;115351;1199;103037;-79
2021/04/25 06:56:56;;;;;;;2.13;1.93;;;;;;;36.55;7.70;100370.32;115220;1200;102938;-79
2021/04/25 06:59:23;;;;;;;7.43;6.53;;;;;;;36.90;7.82;100369.96;115493;1200;103014;-79
2021/04/25 07:01:50;;;;;;;1.63;1.30;;;;;;;37.07;7.32;100376.55;115448;1200;103054;-79
2021/04/25 07:04:17;;;;;;;1.37;1.10;;;;;;;37.07;6.86;100376.55;115246;1199;103034;-79
2021/04/25 07:06:44;;;;;;;2.93;0.80;;;;;;;37.22;7.33;100368.08;115591;1199;102982;-78
2021/04/25 07:09:11;;;;;;;1.40;1.10;;;;;;;37.15;7.14;100370.00;115271;1199;104387;-78
2021/04/25 07:11:39;;;;;;;0.80;0.80;;;;;;;37.12;6.89;100368.55;115180;1199;103101;-79
2021/04/25 07:14:06;;;;;;;1.50;1.00;;;;;;;37.14;7.15;100366.45;115216;1199;103036;-78
2021/04/25 07:16:33;;;;;;;1.20;1.10;;;;;;;37.08;7.12;100372.78;115508;1198;103005;-78
2021/04/25 07:19:00;;;;;;;1.40;1.30;;;;;;;37.06;6.84;100374.88;115189;1198;103194;-79
2021/04/25 07:21:28;;;;;;;1.67;0.93;;;;;;;36.85;7.21;100367.08;115252;1199;103200;-78
2021/04/25 07:23:55;;;;;;;1.87;0.80;;;;;;;36.60;7.25;100367.78;115301;1199;103101;-79
2021/04/25 07:26:23;;;;;;;0.93;0.70;;;;;;;36.35;7.19;100371.45;115472;1199;103053;-78
2021/04/25 07:28:50;;;;;;;1.17;0.97;;;;;;;36.20;6.45;100366.24;115228;1198;103073;-78
2021/04/25 07:31:17;;;;;;;2.65;0.95;;;;;;;36.20;6.89;100361.64;115487;1200;103012;-78
2021/04/25 07:33:44;;;;;;;0.80;0.70;;;;;;;36.08;7.04;100359.80;115229;1198;103091;-78
2021/04/25 07:36:12;;;;;;;1.30;0.80;;;;;;;35.86;6.63;100362.77;115300;1200;103220;-79
2021/04/25 07:38:41;;;;;;;1.27;0.90;;;;;;;35.16;6.70;100369.59;115298;1200;103066;-79
2021/04/25 07:41:08;;;;;;;0.90;0.80;;;;;;;35.22;6.55;100378.80;115266;1199;103095;-79
2021/04/25 07:43:36;;;;;;;4.30;3.77;;;;;;;35.58;6.99;100375.72;115241;1199;103127;-79
2021/04/25 07:46:03;;;;;;;2.57;2.03;;;;;;;35.92;6.85;100366.54;115261;1198;104419;-79
2021/04/25 07:48:30;;;;;;;1.20;1.10;;;;;;;35.96;6.71;100365.89;115285;1200;103009;-79
2021/04/25 07:50:58;;;;;;;1.10;0.90;;;;;;;36.22;7.08;100358.72;115285;1198;103044;-79
2021/04/25 07:53:25;;;;;;;1.10;0.90;;;;;;;35.97;6.39;100369.44;115327;1198;103015;-79
2021/04/25 07:55:52;;;;;;;0.80;0.80;;;;;;;35.78;6.50;100354.83;115217;1198;102984;-79
2021/04/25 07:58:19;;;;;;;1.15;0.83;;;;;;;35.69;7.02;100356.08;115346;1199;103126;-79
2021/04/25 08:00:46;;;;;;;1.93;0.87;;;;;;;35.47;6.17;100363.61;115256;1199;103078;-78
2021/04/25 08:03:13;;;;;;;1.47;1.37;;;;;;;35.28;6.81;100361.70;115252;1199;103069;-79
2021/04/25 08:05:41;;;;;;;1.60;1.07;;;;;;;35.23;6.46;100366.91;115281;1199;103226;-79
2021/04/25 08:08:08;;;;;;;0.90;0.80;;;;;;;35.21;6.54;100356.28;115451;1198;103117;-78
2021/04/25 08:10:35;;;;;;;2.97;1.03;;;;;;;35.07;6.70;100362.72;115449;1199;103444;-78
2021/04/25 08:13:03;;;;;;;2.20;1.23;;;;;;;34.97;7.20;100354.14;115267;1199;102964;-79
2021/04/25 08:15:31;;;;;;;1.90;0.90;;;;;;;34.89;6.42;100362.48;115297;1199;102935;-79
2021/04/25 08:18:00;;;;;;;1.00;0.80;;;;;;;34.56;7.07;100359.63;115191;1199;103015;-79
2021/04/25 08:20:27;;;;;;;1.90;1.40;;;;;;;34.34;6.73;100367.84;115309;1199;103120;-78
2021/04/25 08:22:55;;;;;;;13.50;10.60;;;;;;;34.10;6.82;100358.33;115280;1199;103021;-79
2021/04/25 08:25:22;;;;;;;1.87;1.63;;;;;;;33.49;6.58;100347.27;115269;1198;103120;-79
2021/04/25 08:27:49;;;;;;;1.53;1.00;;;;;;;31.71;6.64;100347.73;115223;1199;103056;-79
2021/04/25 08:30:16;;;;;;;1.67;0.83;;;;;;;30.94;7.40;100350.54;115237;1199;103200;-79
2021/04/25 08:32:43;;;;;;;1.33;1.20;;;;;;;30.68;7.53;100354.38;115221;1199;103142;-78
2021/04/25 08:35:11;;;;;;;1.53;1.03;;;;;;;29.29;7.04;100354.84;115262;1200;103118;-79
2021/04/25 08:37:38;;;;;;;2.33;1.30;;;;;;;27.97;8.02;100357.20;115305;1199;102970;-79
2021/04/25 08:40:06;;;;;;;3.00;2.30;;;;;;;27.79;8.36;100359.09;115242;1199;103126;-79
2021/04/25 08:42:33;;;;;;;1.38;1.20;;;;;;;26.93;8.36;100348.09;115544;1197;103019;-79
2021/04/25 08:45:01;;;;;;;1.40;1.30;;;;;;;25.67;8.68;100356.62;115273;1199;103070;-78
2021/04/25 08:47:29;;;;;;;2.37;1.73;;;;;;;24.58;9.24;100359.49;115248;1199;103094;-78
2021/04/25 08:50:00;;;;;;;2.03;1.30;;;;;;;23.72;9.12;100358.12;115288;1199;103108;-78
2021/04/25 08:52:28;;;;;;;1.50;1.00;;;;;;;23.21;10.02;100353.50;115326;1199;102974;-78
2021/04/25 08:54:56;;;;;;;1.50;1.00;;;;;;;23.32;10.31;100353.44;115308;1197;103019;-79
2021/04/25 08:57:24;;;;;;;1.97;1.03;;;;;;;24.10;10.58;100350.33;115299;1199;103069;-78
2021/04/25 08:59:51;;;;;;;1.53;1.13;;;;;;;24.99;10.49;100345.13;115218;1198;103168;-79
2021/04/25 09:02:18;;;;;;;1.87;1.30;;;;;;;25.09;10.01;100351.33;115291;1199;100870;-79
2021/04/25 09:04:45;;;;;;;1.97;1.30;;;;;;;25.26;10.00;100350.63;115281;1199;103021;-79
2021/04/25 09:07:15;;;;;;;1.60;1.00;;;;;;;24.99;9.89;100345.13;115476;1199;103413;-79
2021/04/25 09:09:49;;;;;;;1.73;1.10;;;;;;;24.88;9.44;100337.24;115264;1199;102813;-78
2021/04/25 09:12:34;;;;;;;1.27;1.00;;;;;;;24.22;9.64;100344.89;115441;1199;103165;-78
2021/04/25 09:15:23;;;;;;;1.10;0.83;;;;;;;22.97;9.45;100339.55;115345;1198;103104;-79
2021/04/25 09:17:55;;;;;;;2.23;1.40;;;;;;;22.15;10.49;100347.89;115315;1199;103098;-79
2021/04/25 09:20:52;;;;;;;1.13;0.97;;;;;;;21.44;10.79;100345.45;115292;1197;103088;-79
2021/04/25 09:23:22;;;;;;;2.10;1.10;;;;;;;20.53;11.28;100345.95;115255;1200;103114;-78
2021/04/25 09:26:01;;;;;;;2.60;1.40;;;;;;;19.71;11.60;100344.61;115373;1199;103535;-78
2021/04/25 09:28:29;;;;;;;2.00;1.00;;;;;;;18.70;12.09;100358.38;115265;1199;103195;-79
2021/04/25 09:31:07;;;;;;;2.17;1.40;;;;;;;17.88;12.45;100359.05;115290;1199;103178;-78
2021/04/25 09:33:55;;;;;;;1.97;1.33;;;;;;;17.09;12.82;100355.81;115226;1199;103050;-79
2021/04/25 09:36:28;;;;;;;3.50;1.30;;;;;;;16.45;13.73;100354.10;115283;1198;103195;-78
2021/04/25 09:39:10;;;;;;;3.27;1.37;;;;;;;16.19;14.67;100348.48;115365;1199;103015;-79
2021/04/25 09:41:38;;;;;;;1.57;1.10;;;;;;;16.88;15.02;100350.84;115362;1200;103049;-79
2021/04/25 09:44:06;;;;;;;1.90;1.10;;;;;;;17.61;14.62;100350.98;115326;1199;103024;-78
2021/04/25 09:46:55;;;;;;;1.37;1.00;;;;;;;17.97;14.45;100345.31;115304;1200;103053;-79
2021/04/25 09:49:43;;;;;;;1.00;0.90;;;;;;;17.97;14.35;100345.31;115271;1199;103052;-78
2021/04/25 09:52:14;;;;;;;2.23;1.73;;;;;;;18.09;14.71;100344.55;115423;1197;103210;-78
2021/04/25 09:54:41;;;;;;;1.93;1.07;;;;;;;18.25;13.88;100340.95;115273;1199;103084;-78
2021/04/25 09:57:32;;;;;;;1.17;0.97;;;;;;;18.01;13.63;100343.33;115281;1199;102999;-79
2021/04/25 09:59:59;;;;;;;1.53;1.10;;;;;;;17.68;13.92;100346.22;115311;1200;103362;-80
2021/04/25 10:02:26;;;;;;;1.60;1.20;;;;;;;17.85;13.73;100340.77;115314;1198;103012;-79
2021/04/25 10:04:54;;;;;;;3.00;1.67;;;;;;;18.06;13.96;100339.45;115597;1199;102964;-78
2021/04/25 10:07:34;;;;;;;3.05;2.00;;;;;;;17.92;13.91;100343.88;115290;1200;103092;-78
2021/04/25 10:10:11;;;;;;;2.60;1.80;;;;;;;17.75;14.31;100348.38;115291;1199;101947;-79
2021/04/25 10:12:39;;;;;;;2.37;1.20;;;;;;;17.60;14.44;100345.81;115310;1199;103141;-79
2021/04/25 10:15:07;;;;;;;1.33;0.97;;;;;;;17.15;14.67;100335.22;115362;1197;103076;-79
2021/04/25 10:17:48;;;;;;;3.43;1.53;;;;;;;16.61;14.81;100333.90;115469;1198;102111;-79
2021/04/25 10:20:19;;;;;;;1.47;0.93;;;;;;;16.05;14.74;100345.73;115472;1199;103416;-78
2021/04/25 10:22:49;;;;;;;1.10;0.80;;;;;;;15.54;14.64;100344.84;115461;1198;103092;-78
2021/04/25 10:25:20;;;;;;;1.40;1.00;;;;;;;15.20;15.11;100350.94;115326;1198;103014;-78
2021/04/25 10:27:57;;;;;;;2.20;1.17;;;;;;;14.80;15.76;100352.88;115354;1200;102973;-79
2021/04/25 10:30:31;;;;;;;1.80;1.17;;;;;;;14.47;16.20;100359.72;115630;1199;103085;-78
2021/04/25 10:32:58;;;;;;;2.40;1.10;;;;;;;14.48;16.50;100362.27;115411;1200;103005;-80
2021/04/25 10:35:32;;;;;;;2.47;1.30;;;;;;;14.70;16.48;100363.88;115428;1199;103022;-79
2021/04/25 10:37:59;;;;;;;3.13;1.10;;;;;;;14.78;16.68;100353.89;115358;1199;103133;-79
2021/04/25 10:40:32;;;;;;;4.07;2.90;;;;;;;14.77;16.84;100358.29;115360;1198;102126;-79
2021/04/25 10:43:11;;;;;;;2.07;1.30;;;;;;;14.66;17.14;100349.20;115359;1197;103446;-79
2021/04/25 10:46:01;;;;;;;2.30;1.27;;;;;;;14.36;16.84;100362.82;115466;1199;101620;-79
2021/04/25 10:48:35;;;;;;;1.50;1.23;;;;;;;13.86;17.43;100386.05;115421;1198;102999;-79
2021/04/25 10:51:22;;;;;;;1.40;1.27;;;;;;;13.49;17.79;100381.53;115412;1199;103082;-79
2021/04/25 10:54:03;;;;;;;2.70;1.40;;;;;;;13.49;18.47;100366.66;115509;1199;103448;-79
2021/04/25 10:56:31;;;;;;;2.47;1.30;;;;;;;13.75;18.43;100378.64;115379;1198;103150;-79
2021/04/25 10:59:34;;;;;;;2.37;1.30;;;;;;;13.73;20.21;100362.13;115573;1198;103098;-78
2021/04/25 11:02:02;;;;;;;2.60;1.40;;;;;;;13.31;20.50;100383.14;115096;1203;103184;-79
2021/04/25 11:05:05;;;;;;;1.70;1.00;;;;;;;12.94;22.18;100381.13;115032;1202;103091;-79
2021/04/25 11:07:36;;;;;;;2.80;1.50;;;;;;;12.48;21.96;100398.59;114897;1206;103003;-79
2021/04/25 11:10:05;;;;;;;2.00;1.30;;;;;;;12.05;22.47;100392.33;114945;1206;103092;-78
2021/04/25 11:12:39;;;;;;;1.50;1.10;;;;;;;11.75;22.56;100403.81;114941;1205;103152;-78
2021/04/25 11:15:07;;;;;;;5.80;2.50;;;;;;;11.55;23.34;100390.58;114916;1204;103072;-79
2021/04/25 11:17:34;;;;;;;3.45;2.10;;;;;;;11.46;23.38;100405.64;114981;1205;103159;-79
2021/04/25 11:20:32;;;;;;;3.30;1.60;;;;;;;11.58;23.74;100406.15;114895;1206;103233;-79
2021/04/25 11:23:23;;;;;;;2.23;1.37;;;;;;;11.72;24.14;100399.55;114944;1204;103040;-79